Time;durP1;ratioP1;P1;durP2;ratioP2;P2;SDS_P1;SDS_P2;PMS_P1;PMS_P2;Temp;Humidity;BMP_temperature;BMP_pressure;BME280_temperature;BME280_humidity;BME280_pressure;Samples;Min_cycle;Max_cycle;Signal;HPM_P1;HPM_P2
2021/12/06 08:41:51;;;;;;;27.02;16.87;;;;;;;2.60;100.00;98810.24;1798490;79;22756;-74
2021/12/06 08:53:33;;;;;;;13.00;10.25;;;;;;;2.69;100.00;98813.08;1852927;77;21985;-75
2021/12/06 08:56:02;;;;;;;11.00;8.83;;;;;;;2.68;100.00;98811.38;1821718;78;20993;-73
2021/12/06 08:58:30;;;;;;;13.62;9.68;;;;;;;2.80;100.00;98807.73;1784212;79;20926;-75
2021/12/06 09:00:56;;;;;;;12.37;8.40;;;;;;;2.90;100.00;98802.80;1792891;79;20847;-76
2021/12/06 09:03:23;;;;;;;9.23;7.40;;;;;;;2.97;99.78;98791.09;1783486;80;20951;-75
2021/12/06 09:05:53;;;;;;;21.12;12.10;;;;;;;3.09;99.41;98788.67;1727374;83;21030;-75
2021/12/06 09:08:19;;;;;;;10.88;8.18;;;;;;;3.17;99.04;98777.80;1776552;80;21521;-76
2021/12/06 09:10:51;;;;;;;15.72;10.25;;;;;;;3.26;98.58;98775.44;1777524;80;22441;-76
2021/12/06 09:13:19;;;;;;;14.73;9.55;;;;;;;3.26;98.25;98777.57;1782428;80;20922;-76
2021/12/06 09:15:46;;;;;;;11.57;8.68;;;;;;;3.33;98.11;98769.29;1777481;80;21054;-76
2021/12/06 09:18:14;;;;;;;11.33;8.48;;;;;;;3.40;97.54;98760.09;1766216;80;21483;-76
2021/12/06 09:20:43;;;;;;;10.08;8.28;;;;;;;3.43;97.48;98750.18;1750905;82;21015;-75
2021/12/06 09:23:10;;;;;;;12.07;8.60;;;;;;;3.44;96.93;98745.00;1752482;82;21175;-75
2021/12/06 09:25:38;;;;;;;11.55;8.65;;;;;;;3.47;96.78;98746.66;1752737;82;20916;-74
2021/12/06 09:28:05;;;;;;;11.63;9.45;;;;;;;3.50;96.33;98743.17;1752370;82;20956;-75
2021/12/06 09:30:33;;;;;;;13.48;9.63;;;;;;;3.46;95.95;98750.11;1776066;80;20959;-75
2021/12/06 09:33:03;;;;;;;15.60;10.95;;;;;;;3.42;95.87;98744.19;1780280;80;21002;-75
2021/12/06 09:35:30;;;;;;;13.93;9.98;;;;;;;3.35;96.09;98746.53;1755915;80;21057;-75
2021/12/06 09:37:58;;;;;;;11.70;8.63;;;;;;;3.37;95.91;98748.63;1736755;82;21592;-74
2021/12/06 09:40:27;;;;;;;11.20;8.48;;;;;;;3.34;95.95;98746.56;1695004;83;20964;-77
2021/12/06 09:42:56;;;;;;;10.95;7.92;;;;;;;3.37;95.79;98747.34;1754756;81;21109;-76
2021/12/06 09:45:25;;;;;;;8.83;7.75;;;;;;;3.32;95.73;98741.89;1763105;79;21030;-76
2021/12/06 09:47:53;;;;;;;10.58;8.08;;;;;;;3.29;95.71;98738.11;1780971;79;21720;-77
2021/12/06 09:50:27;;;;;;;8.75;7.35;;;;;;;3.30;95.67;98742.38;1786678;79;21502;-76
2021/12/06 09:52:58;;;;;;;10.82;8.65;;;;;;;3.26;95.71;98744.16;1692727;83;21601;-74
2021/12/06 09:55:25;;;;;;;10.30;8.43;;;;;;;3.31;96.01;98744.06;1778747;80;21021;-76
2021/12/06 09:57:52;;;;;;;13.83;8.85;;;;;;;3.37;95.84;98745.20;1782933;80;21453;-77
2021/12/06 10:00:20;;;;;;;9.38;7.97;;;;;;;3.44;95.88;98748.86;1782029;80;21126;-76
2021/12/06 10:02:47;;;;;;;15.30;8.78;;;;;;;3.54;95.46;98748.65;1780499;80;20935;-76
2021/12/06 10:05:13;;;;;;;12.03;9.15;;;;;;;3.58;95.27;98739.55;1778005;80;21035;-75
2021/12/06 10:07:40;;;;;;;11.93;9.00;;;;;;;3.64;95.04;98729.52;1784253;80;21058;-72
2021/12/06 10:10:07;;;;;;;10.50;8.00;;;;;;;3.69;94.70;98720.81;1783996;79;21412;-77
2021/12/06 10:12:35;;;;;;;11.05;8.03;;;;;;;3.78;94.52;98723.61;1785145;80;21985;-77
2021/12/06 10:15:03;;;;;;;8.88;7.37;;;;;;;3.84;93.91;98716.15;1755351;80;21124;-78
2021/12/06 10:17:32;;;;;;;9.30;6.95;;;;;;;3.88;93.38;98712.17;1777312;79;21006;-78
2021/12/06 10:19:59;;;;;;;7.37;6.37;;;;;;;3.89;93.11;98708.72;1726900;82;20990;-80
2021/12/06 10:22:27;;;;;;;8.35;7.15;;;;;;;3.94;93.02;98711.17;1705972;83;21565;-75
2021/12/06 10:24:57;;;;;;;10.40;6.85;;;;;;;3.96;92.64;98711.98;1736550;82;21129;-74
2021/12/06 10:27:24;;;;;;;6.72;5.67;;;;;;;3.97;92.44;98711.95;1700874;84;20957;-74
2021/12/06 10:29:59;;;;;;;7.00;5.78;;;;;;;3.97;92.23;98714.96;1709666;82;21011;-75
2021/12/06 10:32:29;;;;;;;9.00;6.90;;;;;;;3.99;92.25;98713.19;1783398;80;21113;-79
2021/12/06 10:35:00;;;;;;;8.48;7.05;;;;;;;4.00;92.00;98713.13;1774309;80;21041;-82
2021/12/06 10:37:32;;;;;;;8.93;7.83;;;;;;;4.03;91.98;98718.19;1782923;80;21713;-79
2021/12/06 10:39:59;;;;;;;12.33;8.08;;;;;;;4.06;91.58;98723.70;1782851;80;21462;-77
2021/12/06 10:42:29;;;;;;;8.25;6.83;;;;;;;4.04;91.62;98718.59;1776078;79;21050;-80
2021/12/06 10:45:10;;;;;;;8.50;6.97;;;;;;;4.02;91.37;98717.78;1747298;81;21085;-80
2021/12/06 10:47:38;;;;;;;10.00;6.65;;;;;;;3.97;91.14;98711.95;1782025;80;20998;-77
2021/12/06 10:50:13;;;;;;;9.33;7.58;;;;;;;3.95;91.45;98702.13;1732483;82;21130;-78
2021/12/06 10:52:56;;;;;;;10.13;7.55;;;;;;;3.97;91.35;98708.09;1786588;80;20937;-81
2021/12/06 10:55:29;;;;;;;10.28;8.28;;;;;;;3.99;91.48;98708.05;1788679;80;21015;-78
2021/12/06 10:58:00;;;;;;;11.57;7.70;;;;;;;4.01;91.41;98709.66;1755773;81;21065;-79
2021/12/06 11:00:46;;;;;;;8.15;6.03;;;;;;;4.03;91.14;98705.77;1754423;81;21016;-76
2021/12/06 11:03:30;;;;;;;8.70;5.83;;;;;;;4.03;91.10;98697.60;1749781;81;21153;-76
2021/12/06 11:06:09;;;;;;;5.85;4.92;;;;;;;4.03;90.87;98687.31;1712370;82;21009;-77
2021/12/06 11:08:38;;;;;;;11.40;6.70;;;;;;;4.00;90.90;98683.53;1725049;82;21098;-77
2021/12/06 11:11:14;;;;;;;6.97;6.28;;;;;;;3.97;90.66;98684.93;1727194;82;21507;-75
2021/12/06 11:13:49;;;;;;;8.33;5.55;;;;;;;3.92;90.51;98680.34;1710926;82;21053;-76
2021/12/06 11:16:24;;;;;;;4.90;4.30;;;;;;;3.86;90.85;98685.64;1694023;82;21147;-74
2021/12/06 11:19:02;;;;;;;5.00;4.33;;;;;;;3.88;91.04;98697.19;1710662;83;21062;-80
2021/12/06 11:21:41;;;;;;;5.25;4.60;;;;;;;3.88;91.03;98683.88;1737953;80;20991;-79
2021/12/06 11:24:30;;;;;;;7.15;5.35;;;;;;;3.87;90.81;98678.33;1765868;80;21071;-77
2021/12/06 11:27:07;;;;;;;6.35;5.37;;;;;;;3.83;90.83;98678.45;1774544;80;21117;-81
2021/12/06 11:29:49;;;;;;;5.70;4.40;;;;;;;3.80;91.20;98672.50;1731857;82;21467;-77
2021/12/06 11:32:26;;;;;;;8.60;5.03;;;;;;;3.85;91.03;98678.81;1723845;82;21499;-77
2021/12/06 11:35:06;;;;;;;8.60;5.05;;;;;;;3.82;91.04;98675.03;1776459;79;21099;-72
2021/12/06 11:37:38;;;;;;;9.65;5.67;;;;;;;3.81;91.35;98675.91;1735340;82;21499;-79
2021/12/06 11:40:14;;;;;;;21.70;6.78;;;;;;;3.80;91.61;98669.08;1735582;82;21510;-80
2021/12/06 11:42:52;;;;;;;7.90;5.87;;;;;;;3.83;91.73;98666.43;1779144;80;21220;-78
2021/12/06 11:45:49;;;;;;;10.78;5.28;;;;;;;3.84;91.80;98668.13;1775987;80;21114;-78
2021/12/06 11:48:29;;;;;;;7.58;4.15;;;;;;;3.86;91.75;98664.22;1777803;79;21065;-76
2021/12/06 11:51:02;;;;;;;5.92;4.55;;;;;;;3.83;91.85;98665.14;1778039;80;20968;-80
2021/12/06 11:53:39;;;;;;;;;;;;;;;3.84;91.97;98662.98;1780534;80;21524;-81
2021/12/06 11:56:14;;;;;;;5.35;3.95;;;;;;;3.85;91.82;98662.09;1747715;80;21070;-80
2021/12/06 11:58:51;;;;;;;7.00;4.33;;;;;;;3.83;91.91;98669.00;1779940;79;21120;-81
2021/12/06 12:01:32;;;;;;;4.50;3.60;;;;;;;3.80;91.86;98650.64;1778714;80;21011;-79
2021/12/06 12:04:05;;;;;;;4.83;4.12;;;;;;;3.78;91.95;98663.16;1776756;80;21031;-79
2021/12/06 12:06:43;;;;;;;5.28;3.92;;;;;;;3.76;91.97;98660.63;1776322;80;21523;-77
2021/12/06 12:09:22;;;;;;;4.80;4.05;;;;;;;3.74;92.14;98661.55;1719265;82;21576;-73
2021/12/06 12:12:22;;;;;;;4.22;3.50;;;;;;;3.75;92.31;98646.52;1773586;80;21102;-73
2021/12/06 12:14:52;;;;;;;5.22;4.47;;;;;;;3.75;92.20;98642.66;1774794;80;20991;-72
2021/12/06 12:17:29;;;;;;;6.72;4.25;;;;;;;3.73;92.20;98645.72;1730934;82;21613;-73
2021/12/06 12:19:57;;;;;;;5.15;4.30;;;;;;;3.74;92.41;98646.97;1726975;82;21080;-72
2021/12/06 12:22:25;;;;;;;6.60;4.50;;;;;;;3.77;92.40;98652.03;1779352;80;21531;-72
2021/12/06 12:25:01;;;;;;;5.55;4.30;;;;;;;3.80;92.39;98650.64;1778792;80;21121;-73
2021/12/06 12:27:34;;;;;;;8.13;7.33;;;;;;;3.83;92.28;98658.72;1776748;80;21522;-72
2021/12/06 12:29:59;;;;;;;5.53;5.03;;;;;;;3.87;92.10;98651.77;1777776;80;20998;-72
2021/12/06 12:32:26;;;;;;;7.47;5.60;;;;;;;3.85;91.72;98657.39;1780231;80;20987;-74
2021/12/06 12:34:53;;;;;;;5.28;4.78;;;;;;;3.76;91.75;98658.06;1756415;80;21709;-72
2021/12/06 12:37:21;;;;;;;5.85;4.47;;;;;;;3.72;92.36;98655.60;1759392;80;21131;-72
2021/12/06 12:40:00;;;;;;;4.92;4.28;;;;;;;3.70;92.06;98649.21;1748326;81;21170;-73
2021/12/06 12:42:28;;;;;;;4.60;4.10;;;;;;;3.70;92.44;98644.52;1742332;81;21343;-72
2021/12/06 12:44:56;;;;;;;5.58;4.20;;;;;;;3.73;92.56;98644.44;1723271;81;21096;-72
2021/12/06 12:47:28;;;;;;;5.78;4.80;;;;;;;3.75;92.40;98649.09;1707398;82;21133;-72
2021/12/06 12:50:10;;;;;;;6.87;5.50;;;;;;;3.71;92.21;98640.61;1746585;81;21088;-74
2021/12/06 12:52:48;;;;;;;6.72;5.60;;;;;;;3.68;92.46;98635.99;1779744;80;20997;-75
2021/12/06 12:55:23;;;;;;;5.00;4.50;;;;;;;3.65;92.44;98636.07;1781070;80;21585;-74
2021/12/06 12:58:06;;;;;;;6.40;4.75;;;;;;;3.62;92.58;98639.56;1783741;80;21530;-74
2021/12/06 13:00:34;;;;;;;10.23;7.10;;;;;;;3.65;92.66;98653.63;1754908;80;22003;-72
2021/12/06 13:03:01;;;;;;;6.03;5.17;;;;;;;3.62;92.61;98643.42;1744296;80;21140;-69
2021/12/06 13:05:29;;;;;;;4.65;4.17;;;;;;;3.59;92.93;98640.95;1716263;81;21013;-69
2021/12/06 13:08:02;;;;;;;4.83;4.20;;;;;;;3.60;93.00;98634.90;1751553;80;21566;-73
2021/12/06 13:10:40;;;;;;;;;;;;;;;3.60;92.85;98623.33;1779371;80;21420;-72
2021/12/06 13:13:26;;;;;;;4.87;3.85;;;;;;;3.57;92.75;98620.87;1780805;80;21541;-74
2021/12/06 13:16:06;;;;;;;6.08;4.50;;;;;;;3.50;92.92;98616.77;1773282;79;21557;-73
2021/12/06 13:18:58;;;;;;;5.33;4.75;;;;;;;3.49;93.23;98621.94;1782392;79;21041;-74
2021/12/06 13:21:44;;;;;;;6.45;4.58;;;;;;;3.51;93.36;98620.17;1784414;80;21015;-72
2021/12/06 13:24:18;;;;;;;5.70;4.83;;;;;;;3.52;93.37;98620.14;1779796;80;21072;-72
2021/12/06 13:26:49;;;;;;;6.58;4.67;;;;;;;3.51;93.28;98631.30;1745388;80;21853;-71
2021/12/06 13:29:27;;;;;;;7.05;4.65;;;;;;;3.48;93.31;98630.53;1781929;79;21607;-71
2021/12/06 13:31:55;;;;;;;4.85;4.30;;;;;;;3.50;93.68;98622.34;1781432;79;20951;-72
2021/12/06 13:34:28;;;;;;;5.95;4.97;;;;;;;3.55;93.70;98623.92;1751936;81;20997;-71
2021/12/06 13:36:59;;;;;;;6.28;5.67;;;;;;;3.59;93.70;98624.25;1776013;80;21043;-71
2021/12/06 13:39:44;;;;;;;7.10;5.03;;;;;;;3.62;93.61;98629.28;1781445;80;21722;-70
2021/12/06 13:42:14;;;;;;;6.47;5.05;;;;;;;3.66;93.54;98634.74;1782080;80;21074;-72
2021/12/06 13:44:49;;;;;;;5.90;5.12;;;;;;;3.65;93.19;98645.06;1781833;80;21105;-72
2021/12/06 13:47:19;;;;;;;8.48;4.92;;;;;;;3.66;93.56;98632.61;1783891;80;21555;-73
2021/12/06 13:50:08;;;;;;;7.17;6.33;;;;;;;3.70;93.44;98626.52;1783607;79;20940;-72
2021/12/06 13:52:48;;;;;;;6.45;5.85;;;;;;;3.73;93.28;98624.70;1783826;80;21143;-71
2021/12/06 13:55:30;;;;;;;8.50;7.55;;;;;;;3.73;93.07;98617.43;1781719;79;20995;-71
2021/12/06 13:58:00;;;;;;;8.60;6.80;;;;;;;3.71;92.91;98616.63;1780673;79;21012;-70
2021/12/06 14:00:41;;;;;;;8.45;6.80;;;;;;;3.67;92.85;98620.16;1762778;79;21032;-71
2021/12/06 14:03:02;;;;;;;6.95;5.90;;;;;;;3.62;92.93;98620.28;1779766;80;20995;-72
2021/12/06 14:05:30;;;;;;;7.85;6.08;;;;;;;3.59;93.06;98622.11;1757917;80;21058;-72
2021/12/06 14:07:57;;;;;;;5.87;5.03;;;;;;;3.59;93.18;98622.95;1781879;80;21627;-72
2021/12/06 14:10:25;;;;;;;5.00;3.98;;;;;;;3.59;93.15;98611.83;1784358;80;21046;-71
2021/12/06 14:12:52;;;;;;;5.92;5.08;;;;;;;3.60;93.12;98617.34;1783938;80;21062;-72
2021/12/06 14:18:07;;;;;;;5.28;4.58;;;;;;;3.57;93.27;98614.44;1783559;80;21152;-71
2021/12/06 14:20:33;;;;;;;5.72;4.85;;;;;;;3.56;93.21;98605.48;1784597;79;20978;-71
2021/12/06 14:23:07;;;;;;;4.78;4.28;;;;;;;3.52;93.07;98602.58;1774593;79;21041;-72
2021/12/06 14:25:35;;;;;;;4.62;3.30;;;;;;;3.43;93.22;98604.50;1780759;79;21059;-72
2021/12/06 14:28:09;;;;;;;4.75;3.45;;;;;;;3.41;93.56;98606.27;1779745;79;21014;-73
2021/12/06 14:30:36;;;;;;;5.72;3.83;;;;;;;3.39;93.63;98596.50;1774885;79;21059;-72
2021/12/06 14:33:05;;;;;;;5.92;4.60;;;;;;;3.37;93.77;98596.98;1784601;80;21030;-72
2021/12/06 14:35:33;;;;;;;6.37;5.05;;;;;;;3.30;93.99;98589.45;1730946;79;21106;-72
2021/12/06 14:38:00;;;;;;;4.95;3.98;;;;;;;3.27;94.27;98589.09;1785623;80;21029;-71
2021/12/06 14:40:27;;;;;;;5.92;4.72;;;;;;;3.25;94.35;98590.01;1787224;80;20939;-71
2021/12/06 14:42:54;;;;;;;5.53;4.40;;;;;;;3.23;94.56;98588.77;1788195;80;21006;-71
2021/12/06 14:45:24;;;;;;;6.22;5.05;;;;;;;3.20;94.80;98591.87;1787936;79;21033;-71
2021/12/06 14:47:57;;;;;;;5.40;4.83;;;;;;;3.17;95.06;98605.64;1756537;80;21033;-71
2021/12/06 14:50:35;;;;;;;3.52;3.20;;;;;;;3.17;95.26;98609.50;1783015;80;21027;-72
2021/12/06 14:53:17;;;;;;;3.52;3.22;;;;;;;3.20;95.46;98600.40;1779882;80;21054;-74
2021/12/06 14:58:19;;;;;;;4.87;3.95;;;;;;;3.19;95.34;98600.03;1765410;80;21034;-75
2021/12/06 15:00:50;;;;;;;4.42;3.52;;;;;;;3.14;95.83;98596.72;1787021;79;20951;-72
2021/12/06 15:03:18;;;;;;;4.12;3.22;;;;;;;3.13;95.97;98607.88;1767238;80;21060;-72
2021/12/06 15:05:49;;;;;;;4.37;3.75;;;;;;;3.16;96.07;98602.67;1786865;79;21534;-72
2021/12/06 15:08:23;;;;;;;6.78;3.98;;;;;;;3.13;95.90;98600.17;1786309;79;21155;-70
2021/12/06 15:11:00;;;;;;;5.00;4.42;;;;;;;3.04;95.86;98597.82;1787980;78;21100;-73
2021/12/06 15:13:27;;;;;;;6.45;4.47;;;;;;;3.00;96.54;98598.33;1787854;79;20986;-72
2021/12/06 15:15:57;;;;;;;6.12;3.92;;;;;;;3.03;96.66;98594.84;1788055;80;20998;-73
2021/12/06 15:18:27;;;;;;;6.15;4.20;;;;;;;3.06;96.70;98596.06;1788146;80;20994;-70
2021/12/06 15:20:55;;;;;;;7.60;3.67;;;;;;;3.08;96.87;98595.58;1788542;80;21098;-73
2021/12/06 15:23:25;;;;;;;3.95;3.10;;;;;;;3.11;97.00;98588.65;1788044;80;20977;-72
2021/12/06 15:25:55;;;;;;;4.92;3.52;;;;;;;3.12;96.90;98574.08;1788410;80;21123;-70
2021/12/06 15:28:26;;;;;;;4.42;3.50;;;;;;;3.13;97.10;98577.48;1768261;80;21486;-70
2021/12/06 15:30:53;;;;;;;4.65;4.08;;;;;;;3.15;97.04;98578.30;1788645;80;21513;-71
2021/12/06 15:33:19;;;;;;;6.65;4.67;;;;;;;3.17;97.09;98571.39;1768271;80;21411;-72
2021/12/06 15:35:51;;;;;;;5.40;4.83;;;;;;;3.18;97.10;98578.22;1787983;79;20974;-73
2021/12/06 15:38:29;;;;;;;5.35;4.67;;;;;;;3.20;97.04;98572.61;1788592;79;20982;-72
2021/12/06 15:41:11;;;;;;;5.62;4.67;;;;;;;3.19;96.83;98570.48;1788145;80;20951;-72
2021/12/06 15:43:45;;;;;;;6.08;5.25;;;;;;;3.21;96.91;98564.83;1786631;80;21410;-74
2021/12/06 15:46:13;;;;;;;7.55;4.60;;;;;;;3.23;96.91;98574.63;1768123;80;21837;-72
2021/12/06 15:48:41;;;;;;;7.45;4.87;;;;;;;3.32;96.93;98584.68;1788070;80;20939;-72
2021/12/06 15:51:12;;;;;;;4.78;4.28;;;;;;;3.38;96.70;98578.10;1788128;80;20991;-72
2021/12/06 15:53:55;;;;;;;5.50;4.50;;;;;;;3.44;96.30;98584.34;1788013;79;21178;-73
2021/12/06 15:56:22;;;;;;;5.28;4.17;;;;;;;3.46;95.84;98592.02;1767964;80;21158;-74
2021/12/06 15:58:50;;;;;;;5.67;4.50;;;;;;;3.46;95.68;98589.45;1788225;79;21086;-74
2021/12/06 16:01:16;;;;;;;9.20;4.70;;;;;;;3.46;95.55;98588.16;1768418;80;20922;-72
2021/12/06 16:03:46;;;;;;;4.75;4.25;;;;;;;3.48;95.40;98584.27;1788100;80;20986;-72
2021/12/06 16:06:15;;;;;;;5.20;4.53;;;;;;;3.49;95.20;98585.95;1768442;79;21136;-72
2021/12/06 16:08:45;;;;;;;6.35;5.58;;;;;;;3.47;94.79;98589.84;1788252;80;21038;-72
2021/12/06 16:11:12;;;;;;;10.70;8.70;;;;;;;3.42;94.85;98590.41;1788648;80;21097;-72
2021/12/06 16:13:44;;;;;;;11.90;9.63;;;;;;;3.36;94.67;98582.87;1788124;78;21412;-70
2021/12/06 16:16:14;;;;;;;10.40;9.13;;;;;;;3.27;94.73;98589.53;1768197;80;21494;-75
2021/12/06 16:18:43;;;;;;;12.93;10.15;;;;;;;3.20;95.29;98591.41;1768184;80;21517;-72
2021/12/06 16:21:15;;;;;;;11.00;9.38;;;;;;;3.24;95.75;98579.33;1788257;79;21033;-76
2021/12/06 16:23:46;;;;;;;7.62;6.83;;;;;;;3.33;95.84;98584.23;1788132;80;21128;-72
2021/12/06 16:26:18;;;;;;;8.98;7.67;;;;;;;3.41;95.62;98593.41;1788442;79;20999;-71
2021/12/06 16:29:08;;;;;;;10.13;8.78;;;;;;;3.35;94.94;98601.75;1768483;78;21014;-71
2021/12/06 16:31:38;;;;;;;11.18;8.88;;;;;;;3.22;94.93;98596.51;1788536;79;20989;-74
2021/12/06 16:34:13;;;;;;;9.10;7.30;;;;;;;3.09;95.10;98602.41;1768254;80;20931;-73
2021/12/06 16:36:51;;;;;;;7.25;5.78;;;;;;;3.03;95.11;98591.00;1788275;78;21119;-73
2021/12/06 16:39:31;;;;;;;8.63;6.40;;;;;;;2.97;95.29;98580.90;1787746;79;20939;-73
2021/12/06 16:42:12;;;;;;;9.38;8.33;;;;;;;2.91;95.64;98585.73;1788149;79;20990;-72
2021/12/06 16:44:58;;;;;;;10.05;7.60;;;;;;;2.92;96.14;98576.31;1788251;80;20931;-72
2021/12/06 16:47:34;;;;;;;10.78;7.78;;;;;;;3.00;96.39;98579.51;1788486;79;21053;-74
2021/12/06 16:50:09;;;;;;;7.00;5.95;;;;;;;3.00;96.01;98576.94;1768842;80;21822;-74
2021/12/06 16:52:56;;;;;;;7.58;6.42;;;;;;;3.01;96.31;98570.48;1788044;80;20918;-74
2021/12/06 16:55:29;;;;;;;9.20;7.25;;;;;;;3.13;96.84;98568.50;1790695;80;20978;-74
2021/12/06 16:58:10;;;;;;;10.95;8.00;;;;;;;3.25;96.60;98565.16;1752048;82;20946;-74
2021/12/06 17:00:48;;;;;;;12.78;9.58;;;;;;;3.35;96.29;98564.48;1748467;81;20946;-74
2021/12/06 17:03:30;;;;;;;11.15;9.03;;;;;;;3.43;95.90;98565.10;1751906;82;21091;-74
2021/12/06 17:06:01;;;;;;;12.00;9.80;;;;;;;3.46;95.63;98560.72;1748921;82;20998;-74
2021/12/06 17:08:34;;;;;;;13.38;9.10;;;;;;;3.52;95.53;98562.30;1751847;82;20989;-73
2021/12/06 17:11:08;;;;;;;13.40;12.00;;;;;;;3.55;95.29;98562.66;1725014;82;21030;-73
2021/12/06 17:13:36;;;;;;;17.98;12.30;;;;;;;3.59;95.25;98563.82;1748429;82;20994;-73
2021/12/06 17:16:05;;;;;;;26.37;18.73;;;;;;;3.57;94.69;98561.73;1717521;82;21051;-73
2021/12/06 17:18:36;;;;;;;19.12;15.78;;;;;;;3.54;95.00;98557.95;1781111;80;21033;-73
2021/12/06 17:21:07;;;;;;;21.07;16.05;;;;;;;3.58;94.83;98560.00;1717529;82;21054;-72
2021/12/06 17:23:35;;;;;;;15.32;13.15;;;;;;;3.54;94.61;98557.11;1767062;80;21026;-72
2021/12/06 17:26:10;;;;;;;12.88;10.40;;;;;;;3.53;94.60;98560.56;1743213;82;21514;-72
2021/12/06 17:28:41;;;;;;;11.90;10.70;;;;;;;3.47;94.54;98551.28;1781180;80;21812;-73
2021/12/06 17:31:31;;;;;;;10.90;8.48;;;;;;;3.39;94.39;98546.81;1751855;81;20950;-73
2021/12/06 17:34:01;;;;;;;19.02;16.25;;;;;;;3.33;94.82;98545.25;1727724;82;20990;-73
2021/12/06 17:36:35;;;;;;;9.38;7.50;;;;;;;3.39;94.97;98542.96;1743003;82;21010;-73
2021/12/06 17:39:07;;;;;;;11.10;8.70;;;;;;;3.40;94.90;98544.62;1781046;79;20986;-72
2021/12/06 17:41:35;;;;;;;16.05;9.58;;;;;;;3.43;94.92;98541.52;1781230;80;21116;-72
2021/12/06 17:44:02;;;;;;;15.25;9.20;;;;;;;3.46;94.92;98535.02;1780948;80;21051;-72
2021/12/06 17:46:29;;;;;;;14.85;9.93;;;;;;;3.49;95.06;98535.38;1717307;82;21015;-72
2021/12/06 17:48:58;;;;;;;9.53;8.53;;;;;;;3.53;95.21;98531.00;1793908;80;20983;-73
2021/12/06 17:51:24;;;;;;;10.60;8.78;;;;;;;3.58;95.02;98535.58;1742786;82;21531;-72
2021/12/06 17:53:51;;;;;;;8.95;8.05;;;;;;;3.63;95.15;98538.39;1726241;82;21910;-72
2021/12/06 17:56:17;;;;;;;12.00;8.00;;;;;;;3.68;95.48;98526.70;1749807;81;21404;-70
2021/12/06 17:58:54;;;;;;;10.25;8.75;;;;;;;3.75;95.31;98515.36;1753956;81;21528;-72
2021/12/06 18:01:16;;;;;;;8.75;7.72;;;;;;;3.78;94.89;98518.69;1749252;82;20959;-74
2021/12/06 18:03:43;;;;;;;9.85;8.23;;;;;;;3.80;94.28;98531.48;1753960;81;21528;-74
2021/12/06 18:06:10;;;;;;;12.30;9.00;;;;;;;3.75;94.03;98525.65;1717296;82;21996;-73
2021/12/06 18:08:36;;;;;;;10.78;9.43;;;;;;;3.72;94.13;98520.59;1775732;80;21458;-74
2021/12/06 18:11:04;;;;;;;13.25;8.70;;;;;;;3.67;93.90;98521.16;1791376;79;21434;-73
2021/12/06 18:13:33;;;;;;;21.40;8.43;;;;;;;3.59;93.79;98519.27;1791252;79;21496;-72
2021/12/06 18:16:00;;;;;;;10.15;7.45;;;;;;;3.54;94.42;98515.98;1791411;80;20926;-73
2021/12/06 18:18:26;;;;;;;8.53;7.22;;;;;;;3.57;94.69;98518.47;1791317;79;21517;-72
2021/12/06 18:20:53;;;;;;;9.33;7.42;;;;;;;3.62;94.68;98521.73;1775555;80;21005;-72
2021/12/06 18:23:20;;;;;;;7.53;6.40;;;;;;;3.67;94.83;98528.88;1775764;80;20969;-72
2021/12/06 18:25:47;;;;;;;7.65;6.80;;;;;;;3.70;94.68;98521.92;1775551;80;21006;-72
2021/12/06 18:28:15;;;;;;;7.78;6.80;;;;;;;3.73;94.77;98530.83;1775635;80;20990;-72
2021/12/06 18:30:43;;;;;;;10.50;6.65;;;;;;;3.78;94.75;98523.84;1791286;80;21855;-72
2021/12/06 18:33:09;;;;;;;7.10;5.72;;;;;;;3.78;94.30;98519.98;1775570;80;20997;-72
2021/12/06 18:35:36;;;;;;;5.62;4.97;;;;;;;3.79;94.36;98519.53;1791313;80;20946;-73
2021/12/06 18:38:11;;;;;;;5.67;4.35;;;;;;;3.80;94.37;98519.91;1791229;79;20986;-72
2021/12/06 18:40:45;;;;;;;11.43;4.92;;;;;;;3.82;94.52;98521.99;1790897;79;20939;-72
2021/12/06 18:43:04;;;;;;;9.73;5.65;;;;;;;3.85;94.40;98527.05;1790863;79;21121;-72
2021/12/06 18:45:34;;;;;;;7.17;5.42;;;;;;;3.88;94.66;98522.27;1791223;79;21065;-72
2021/12/06 18:48:03;;;;;;;8.08;5.15;;;;;;;3.93;94.76;98528.97;1791587;80;21635;-72
2021/12/06 18:50:34;;;;;;;6.42;4.90;;;;;;;3.94;94.08;98517.78;1775513;80;20930;-72
2021/12/06 18:53:06;;;;;;;9.85;6.12;;;;;;;3.95;94.14;98513.48;1775578;80;20950;-72
2021/12/06 18:55:32;;;;;;;6.90;5.45;;;;;;;3.97;94.28;98513.00;1790015;79;22143;-72
2021/12/06 18:57:59;;;;;;;9.48;5.70;;;;;;;4.00;94.53;98508.58;1788909;80;20941;-71
2021/12/06 19:00:29;;;;;;;8.15;5.40;;;;;;;4.06;94.27;98510.13;1775371;80;20951;-74
2021/12/06 19:02:56;;;;;;;8.43;4.87;;;;;;;4.10;94.08;98505.30;1789128;79;20950;-73
2021/12/06 19:05:23;;;;;;;7.28;5.42;;;;;;;4.09;93.66;98500.59;1750672;82;21061;-73
2021/12/06 19:07:51;;;;;;;7.28;5.40;;;;;;;4.08;93.43;98499.34;1754452;81;21509;-73
2021/12/06 19:10:21;;;;;;;10.68;8.60;;;;;;;4.03;93.07;98502.50;1748384;82;20990;-73
2021/12/06 19:12:48;;;;;;;11.95;7.50;;;;;;;3.99;93.40;98503.06;1748602;82;20947;-73
2021/12/06 19:15:16;;;;;;;18.75;7.60;;;;;;;3.99;93.54;98500.94;1748788;82;20990;-73
2021/12/06 19:17:45;;;;;;;10.63;6.85;;;;;;;3.98;93.34;98507.81;1717971;82;21011;-73
2021/12/06 19:20:11;;;;;;;10.43;5.92;;;;;;;3.98;93.62;98503.11;1749254;82;21138;-73
2021/12/06 19:22:38;;;;;;;10.60;8.20;;;;;;;3.99;93.62;98501.78;1722630;82;20951;-73
2021/12/06 19:25:06;;;;;;;16.37;7.70;;;;;;;4.02;94.06;98500.81;1728810;81;21041;-73
2021/12/06 19:27:33;;;;;;;13.80;6.40;;;;;;;4.04;93.79;98499.04;1748786;82;21053;-73
2021/12/06 19:30:00;;;;;;;20.05;6.22;;;;;;;4.05;93.87;98502.02;1747620;82;21531;-73
2021/12/06 19:32:26;;;;;;;11.60;5.92;;;;;;;4.05;93.64;98500.28;1754793;81;21565;-73
2021/12/06 19:34:53;;;;;;;17.82;5.97;;;;;;;4.04;93.59;98492.61;1750463;82;21486;-73
2021/12/06 19:37:20;;;;;;;9.00;7.17;;;;;;;4.05;93.61;98495.58;1754286;81;21445;-74
2021/12/06 19:39:47;;;;;;;12.30;7.75;;;;;;;4.06;93.66;98498.11;1748705;81;21423;-74
2021/12/06 19:42:16;;;;;;;24.65;7.35;;;;;;;4.08;93.79;98495.05;1748592;82;21515;-73
2021/12/06 19:44:43;;;;;;;10.78;7.90;;;;;;;4.11;93.60;98501.39;1748785;82;21079;-72
2021/12/06 19:47:13;;;;;;;9.68;6.87;;;;;;;4.12;93.25;98503.52;1754320;81;21060;-72
2021/12/06 19:49:40;;;;;;;11.35;7.42;;;;;;;4.11;93.33;98502.67;1722682;82;20967;-72
2021/12/06 19:52:07;;;;;;;10.48;7.80;;;;;;;4.13;93.35;98506.48;1789012;79;21470;-72
2021/12/06 19:54:33;;;;;;;12.35;9.15;;;;;;;4.15;93.20;98500.85;1775518;80;21478;-74
2021/12/06 19:57:00;;;;;;;15.13;9.60;;;;;;;4.17;93.27;98498.23;1788906;80;21018;-73
2021/12/06 19:59:27;;;;;;;17.20;8.15;;;;;;;4.19;93.12;98493.44;1790828;80;21618;-72
2021/12/06 20:01:53;;;;;;;19.62;8.80;;;;;;;4.23;93.01;98492.87;1790407;78;21512;-73
2021/12/06 20:04:21;;;;;;;20.75;12.43;;;;;;;4.26;92.80;98495.36;1788990;80;21437;-73
2021/12/06 20:06:48;;;;;;;17.82;13.00;;;;;;;4.28;92.56;98488.44;1789026;80;20965;-73
2021/12/06 20:09:15;;;;;;;26.07;13.43;;;;;;;4.29;92.08;98488.83;1788925;80;21190;-73
2021/12/06 20:11:41;;;;;;;25.32;12.50;;;;;;;4.26;92.15;98484.62;1789100;80;21063;-74
2021/12/06 20:14:08;;;;;;;34.13;13.32;;;;;;;4.26;92.07;98483.33;1788867;80;21012;-74
2021/12/06 20:16:34;;;;;;;31.17;18.55;;;;;;;4.27;91.98;98488.03;1788927;79;21528;-74
2021/12/06 20:19:01;;;;;;;27.60;19.85;;;;;;;4.29;92.13;98486.25;1764267;80;21607;-74
2021/12/06 20:21:28;;;;;;;29.67;20.43;;;;;;;4.31;92.05;98487.05;1764500;80;21036;-74
2021/12/06 20:23:55;;;;;;;26.70;19.60;;;;;;;4.32;92.15;98487.00;1764318;80;20989;-74
2021/12/06 20:26:22;;;;;;;24.20;18.25;;;;;;;4.35;92.22;98479.19;1788859;80;21087;-74
2021/12/06 20:28:51;;;;;;;28.42;18.20;;;;;;;4.35;91.68;98488.20;1764341;80;20969;-74
2021/12/06 20:31:18;;;;;;;29.45;16.93;;;;;;;4.35;91.66;98486.91;1764654;80;20953;-72
2021/12/06 20:33:47;;;;;;;28.87;14.80;;;;;;;4.36;91.38;98491.62;1788962;80;21133;-72
2021/12/06 20:36:15;;;;;;;18.85;10.50;;;;;;;4.35;91.09;98477.91;1789216;79;21465;-73
2021/12/06 20:38:41;;;;;;;12.75;7.17;;;;;;;4.36;90.97;98478.74;1788898;80;21052;-73
2021/12/06 20:41:08;;;;;;;14.13;7.25;;;;;;;4.36;90.61;98468.00;1789040;80;21009;-72
2021/12/06 20:43:35;;;;;;;14.73;7.90;;;;;;;4.34;90.39;98467.66;1764418;80;21052;-72
2021/12/06 20:46:03;;;;;;;14.25;9.88;;;;;;;4.31;90.53;98471.16;1788896;80;21543;-73
2021/12/06 20:48:30;;;;;;;20.97;15.13;;;;;;;4.28;90.39;98478.14;1790628;80;20957;-73
2021/12/06 20:50:57;;;;;;;22.10;15.78;;;;;;;4.22;90.56;98484.75;1764622;80;21000;-72